createdAt,value
2023-01-06T00:00:47.492Z,99342.77
2023-01-06T00:06:01.937Z,99355.41
2023-01-06T00:11:11.764Z,99359.23
2023-01-06T00:16:22.080Z,99367.15
2023-01-06T00:21:30.211Z,99360.60
2023-01-06T00:26:37.483Z,99363.91
2023-01-06T00:31:42.931Z,99371.27
2023-01-06T00:36:50.214Z,99374.71
2023-01-06T00:42:07.938Z,99384.38
2023-01-06T00:47:14.903Z,99386.98
2023-01-06T00:52:22.011Z,99392.19
2023-01-06T01:03:06.902Z,99409.35
2023-01-06T01:08:16.039Z,99420.63
2023-01-06T01:13:23.968Z,99427.01
2023-01-06T01:18:31.719Z,99438.55
2023-01-06T01:23:39.244Z,99442.05
2023-01-06T01:28:46.982Z,99452.74
2023-01-06T01:33:54.538Z,99460.89
2023-01-06T01:39:02.178Z,99456.29
2023-01-06T01:44:36.221Z,99460.58
2023-01-06T01:49:45.988Z,99465.75
2023-01-06T01:54:55.772Z,99476.02
2023-01-06T02:00:05.900Z,99471.31
2023-01-06T02:05:15.783Z,99477.60
2023-01-06T02:10:27.086Z,99475.66
2023-01-06T02:15:35.705Z,99482.05
2023-01-06T02:21:05.932Z,99494.10
2023-01-06T02:26:48.663Z,99500.30
2023-01-06T02:32:16.246Z,99505.04
2023-01-06T02:37:29.444Z,99501.75
2023-01-06T02:42:46.753Z,99508.44
2023-01-06T02:48:02.046Z,99514.72
2023-01-06T03:01:30.632Z,99524.34
2023-01-06T03:06:44.948Z,99529.20
2023-01-06T03:11:54.491Z,99524.94
2023-01-06T03:17:02.200Z,99527.36
2023-01-06T03:22:10.874Z,99531.64
2023-01-06T03:27:20.693Z,99530.85
2023-01-06T03:32:34.589Z,99529.13
2023-01-06T03:37:52.957Z,99529.48
2023-01-06T03:43:16.662Z,99535.88
2023-01-06T03:48:35.574Z,99534.87
2023-01-06T03:53:49.745Z,99534.11
2023-01-06T03:59:00.636Z,99538.55
2023-01-06T04:04:08.344Z,99538.08
2023-01-06T04:09:15.956Z,99547.70
2023-01-06T04:14:23.852Z,99555.94
2023-01-06T04:19:32.204Z,99556.41
2023-01-06T04:24:40.044Z,99567.67
2023-01-06T04:29:47.940Z,99573.66
2023-01-06T04:34:56.052Z,99577.20
2023-01-06T04:40:04.378Z,99574.55
2023-01-06T04:45:13.207Z,99576.56
2023-01-06T04:50:22.244Z,99574.33
2023-01-06T04:55:30.345Z,99576.86
2023-01-06T05:00:37.932Z,99576.11
2023-01-06T05:05:46.104Z,99581.77
2023-01-06T05:11:00.523Z,99591.41
2023-01-06T05:16:13.053Z,99588.89
2023-01-06T05:29:37.542Z,99595.02
2023-01-06T05:34:45.773Z,99599.33
2023-01-06T05:39:54.840Z,99602.59
2023-01-06T05:45:02.215Z,99606.50
2023-01-06T05:50:12.048Z,99605.65
2023-01-06T05:55:19.577Z,99606.36
2023-01-06T06:00:27.899Z,99607.43
2023-01-06T06:05:35.234Z,99616.77
2023-01-06T06:10:42.603Z,99619.10
2023-01-06T06:15:49.971Z,99630.64
2023-01-06T06:21:04.241Z,99637.65
2023-01-06T06:26:13.121Z,99642.36
2023-01-06T06:31:23.239Z,99646.11
2023-01-06T06:36:32.335Z,99646.52
2023-01-06T06:41:39.983Z,99646.40
2023-01-06T06:46:47.501Z,99656.86
2023-01-06T06:51:55.739Z,99662.39
2023-01-06T06:57:03.406Z,99661.37
2023-01-06T07:02:11.642Z,99666.49
2023-01-06T07:07:19.647Z,99669.66
2023-01-06T07:12:28.041Z,99671.04
2023-01-06T07:17:35.877Z,99677.65
2023-01-06T07:22:45.148Z,99685.30
2023-01-06T07:27:59.176Z,99692.64
2023-01-06T07:33:07.119Z,99700.48
2023-01-06T07:38:14.590Z,99700.66
2023-01-06T07:43:22.252Z,99709.32
2023-01-06T07:48:30.276Z,99703.47
2023-01-06T07:53:38.553Z,99705.71
2023-01-06T07:58:45.956Z,99703.39
2023-01-06T08:03:53.192Z,99715.78
2023-01-06T08:09:00.978Z,99715.37
2023-01-06T08:14:08.480Z,99718.58
2023-01-06T08:19:16.204Z,99724.39
2023-01-06T08:24:23.705Z,99734.65
2023-01-06T08:29:32.040Z,99741.03
2023-01-06T08:34:39.878Z,99742.95
2023-01-06T08:39:47.767Z,99737.71
2023-01-06T08:44:56.739Z,99745.95
2023-01-06T08:50:04.133Z,99743.80
2023-01-06T08:55:12.301Z,99746.77
2023-01-06T09:00:21.168Z,99745.91
2023-01-06T09:05:29.710Z,99742.09
2023-01-06T09:10:40.311Z,99740.54
2023-01-06T09:15:49.316Z,99746.64
2023-01-06T09:20:58.664Z,99745.44
2023-01-06T09:26:07.110Z,99754.02
2023-01-06T09:31:14.952Z,99753.13
2023-01-06T09:36:23.134Z,99746.59
2023-01-06T09:41:55.221Z,99743.56
2023-01-06T09:47:04.377Z,99743.80
2023-01-06T09:52:18.818Z,99734.42
2023-01-06T09:57:34.927Z,99721.30
2023-01-06T10:02:44.052Z,99713.92
2023-01-06T10:08:00.189Z,99702.55
2023-01-06T10:13:24.616Z,99692.34
2023-01-06T10:18:41.032Z,99679.45
2023-01-06T10:24:18.187Z,99679.92
2023-01-06T10:29:31.184Z,99687.14
2023-01-06T10:34:39.143Z,99681.02
2023-01-06T10:39:49.678Z,99672.41
2023-01-06T10:44:58.586Z,99667.27
2023-01-06T10:50:06.736Z,99663.30
2023-01-06T10:55:29.659Z,99666.11
2023-01-06T11:00:37.207Z,99667.15
2023-01-06T11:05:45.106Z,99663.05
2023-01-06T11:10:58.685Z,99656.03
2023-01-06T11:16:09.701Z,99653.92
2023-01-06T11:21:18.650Z,99648.73
2023-01-06T11:26:28.421Z,99647.56
2023-01-06T11:31:36.991Z,99639.39
2023-01-06T11:36:48.568Z,99635.73
2023-01-06T11:41:58.089Z,99635.68
2023-01-06T11:47:09.253Z,99640.51
2023-01-06T11:52:27.653Z,99646.15
2023-01-06T11:57:43.101Z,99641.67
2023-01-06T12:02:57.763Z,99626.88
2023-01-06T12:08:12.118Z,99629.34
2023-01-06T12:13:19.650Z,99621.33
2023-01-06T12:18:31.622Z,99615.51
2023-01-06T12:23:41.526Z,99608.42
2023-01-06T12:28:51.611Z,99590.80
2023-01-06T12:34:03.306Z,99577.05
2023-01-06T12:39:19.420Z,99577.14
2023-01-06T12:44:39.331Z,99573.48
2023-01-06T12:49:56.223Z,99576.52
2023-01-06T12:55:06.566Z,99576.20
2023-01-06T13:00:43.659Z,99574.23
2023-01-06T13:06:02.652Z,99561.35
2023-01-06T13:11:24.437Z,99563.61
2023-01-06T13:16:39.315Z,99562.77
2023-01-06T13:21:48.538Z,99546.27
2023-01-06T13:27:22.622Z,99537.46
2023-01-06T13:32:57.264Z,99532.22
2023-01-06T13:38:19.955Z,99516.64
2023-01-06T13:43:31.653Z,99509.36
2023-01-06T13:48:43.748Z,99509.52
2023-01-06T13:53:51.381Z,99507.70
2023-01-06T13:59:25.388Z,99494.63
2023-01-06T14:04:49.786Z,99485.47
2023-01-06T14:09:58.051Z,99478.25
2023-01-06T14:15:09.346Z,99480.64
2023-01-06T14:20:32.308Z,99479.02
2023-01-06T14:25:44.109Z,99468.52
2023-01-06T14:30:52.767Z,99456.30
2023-01-06T14:36:12.018Z,99444.05
2023-01-06T14:41:28.118Z,99429.92
2023-01-06T14:46:44.601Z,99431.27
2023-01-06T14:51:55.294Z,99440.98
2023-01-06T14:57:09.844Z,99445.67
2023-01-06T15:02:18.882Z,99439.23
2023-01-06T15:07:27.383Z,99438.16
2023-01-06T15:12:36.272Z,99433.04
2023-01-06T15:17:44.598Z,99428.83
2023-01-06T15:22:53.258Z,99430.29
2023-01-06T15:28:00.691Z,99428.40
2023-01-06T15:33:10.826Z,99423.68
2023-01-06T15:38:31.553Z,99418.23
2023-01-06T15:43:45.762Z,99419.19
2023-01-06T15:48:54.046Z,99421.58
2023-01-06T15:54:02.550Z,99427.45
2023-01-06T15:59:18.266Z,99416.45
2023-01-06T16:04:27.689Z,99415.61
2023-01-06T16:09:38.424Z,99420.41
2023-01-06T16:14:49.776Z,99407.42
2023-01-06T16:20:03.549Z,99393.02
2023-01-06T16:25:27.286Z,99376.66
2023-01-06T16:30:36.909Z,99376.65
2023-01-06T16:35:45.473Z,99376.40
2023-01-06T16:40:55.744Z,99376.86
2023-01-06T16:46:12.009Z,99375.58
2023-01-06T16:51:20.056Z,99373.30
2023-01-06T16:56:27.776Z,99365.95
2023-01-06T17:01:37.344Z,99358.77
2023-01-06T17:06:47.723Z,99345.65
2023-01-06T17:11:59.303Z,99342.59
2023-01-06T17:17:21.916Z,99342.98
2023-01-06T17:22:31.758Z,99341.65
2023-01-06T17:27:40.781Z,99344.73
2023-01-06T17:32:49.525Z,99343.30
2023-01-06T17:38:00.359Z,99352.17
2023-01-06T17:43:17.946Z,99351.48
2023-01-06T17:48:27.480Z,99353.27
2023-01-06T17:53:55.829Z,99350.18
2023-01-06T17:59:13.878Z,99347.01
2023-01-06T18:04:25.938Z,99340.59
2023-01-06T18:09:33.403Z,99337.89
2023-01-06T18:14:46.050Z,99341.67
2023-01-06T18:19:54.930Z,99340.94
2023-01-06T18:25:03.663Z,99349.32
2023-01-06T18:30:21.776Z,99350.07
2023-01-06T18:35:31.505Z,99355.41
2023-01-06T18:40:40.560Z,99346.25
2023-01-06T18:45:51.905Z,99343.75
2023-01-06T18:51:02.030Z,99346.52
2023-01-06T18:56:16.830Z,99344.20
2023-01-06T19:01:28.193Z,99333.06
2023-01-06T19:06:40.531Z,99318.42
2023-01-06T19:11:49.191Z,99314.77
2023-01-06T19:16:58.284Z,99313.90
2023-01-06T19:22:20.220Z,99313.59
2023-01-06T19:27:43.772Z,99315.84
2023-01-06T19:32:51.211Z,99321.49
2023-01-06T19:38:06.888Z,99325.38
2023-01-06T19:43:19.323Z,99319.46
2023-01-06T19:48:31.029Z,99323.72
2023-01-06T19:53:46.555Z,99330.95
2023-01-06T19:58:59.144Z,99326.18
2023-01-06T20:04:18.950Z,99327.25
2023-01-06T20:09:27.363Z,99331.00
2023-01-06T20:14:35.279Z,99332.08
2023-01-06T20:19:44.401Z,99335.40
2023-01-06T20:24:52.053Z,99337.48
2023-01-06T20:30:05.095Z,99335.31
2023-01-06T20:35:14.649Z,99348.16
2023-01-06T20:40:22.378Z,99346.56
2023-01-06T20:45:31.054Z,99339.84
2023-01-06T20:50:39.411Z,99331.16
2023-01-06T20:55:47.115Z,99333.77
2023-01-06T21:00:55.031Z,99331.54
2023-01-06T21:06:02.441Z,99331.26
2023-01-06T21:11:10.060Z,99333.66
2023-01-06T21:16:18.650Z,99337.84
2023-01-06T21:21:26.589Z,99339.45
2023-01-06T21:26:35.585Z,99338.92
2023-01-06T21:31:44.241Z,99339.73
2023-01-06T21:36:52.421Z,99345.21
2023-01-06T21:42:19.634Z,99355.65
2023-01-06T21:47:27.685Z,99356.31
2023-01-06T21:52:37.079Z,99359.29
2023-01-06T21:57:45.801Z,99365.37
2023-01-06T22:02:56.299Z,99372.80
2023-01-06T22:08:06.926Z,99380.09
2023-01-06T22:13:19.446Z,99376.88
2023-01-06T22:18:29.307Z,99383.54
2023-01-06T22:23:38.470Z,99385.34
2023-01-06T22:28:45.873Z,99389.65
2023-01-06T22:33:54.058Z,99395.35
2023-01-06T22:39:02.122Z,99394.07
2023-01-06T22:44:10.128Z,99388.77
2023-01-06T22:49:17.641Z,99386.27
2023-01-06T22:54:26.420Z,99389.04
2023-01-06T22:59:33.966Z,99387.79
2023-01-06T23:04:41.579Z,99390.61
2023-01-06T23:09:49.496Z,99394.95
2023-01-06T23:14:57.621Z,99399.23
2023-01-06T23:20:05.564Z,99399.93
2023-01-06T23:25:13.266Z,99399.59
2023-01-06T23:30:22.334Z,99404.52
2023-01-06T23:35:30.565Z,99410.88
2023-01-06T23:40:37.913Z,99416.46
2023-01-06T23:45:45.536Z,99423.95
2023-01-06T23:50:54.150Z,99429.73
2023-01-06T23:56:04.401Z,99430.13
